createdAt,value
2023-01-10T00:02:18.669Z,95768.06
2023-01-10T00:04:48.355Z,95764.72
2023-01-10T00:07:17.243Z,95757.06
2023-01-10T00:09:46.095Z,95775.81
2023-01-10T00:12:33.440Z,95773.38
2023-01-10T00:15:02.896Z,95772.00
2023-01-10T00:17:32.369Z,95773.97
2023-01-10T00:20:01.278Z,95770.50
2023-01-10T00:22:32.430Z,95758.72
2023-01-10T00:25:01.274Z,95770.19
2023-01-10T00:27:32.382Z,95771.53
2023-01-10T00:30:05.069Z,95757.63
2023-01-10T00:32:33.998Z,95765.69
2023-01-10T00:35:04.023Z,95773.28
2023-01-10T00:37:33.017Z,95776.69
2023-01-10T00:40:02.087Z,95767.53
2023-01-10T00:42:50.155Z,95773.00
2023-01-10T00:45:20.528Z,95781.19
2023-01-10T00:47:49.839Z,95780.66
2023-01-10T00:50:19.426Z,95776.63
2023-01-10T00:52:48.228Z,95779.56
2023-01-10T00:55:17.191Z,95765.19
2023-01-10T00:57:46.023Z,95774.66
2023-01-10T01:00:15.697Z,95772.06
2023-01-10T01:02:44.820Z,95769.78
2023-01-10T01:05:13.615Z,95771.91
2023-01-10T01:07:42.410Z,95785.25
2023-01-10T01:10:29.488Z,95774.81
2023-01-10T01:13:01.441Z,95784.34
2023-01-10T01:15:30.283Z,95786.91
2023-01-10T01:17:59.237Z,95786.91
2023-01-10T01:20:28.559Z,95798.69
2023-01-10T01:22:57.426Z,95800.97
2023-01-10T01:25:26.363Z,95797.25
2023-01-10T01:27:55.236Z,95803.22
2023-01-10T01:30:24.369Z,95804.03
2023-01-10T01:32:53.226Z,95801.69
2023-01-10T01:35:22.262Z,95814.72
2023-01-10T01:37:51.959Z,95804.59
2023-01-10T01:40:23.253Z,95817.84
2023-01-10T01:42:58.891Z,95821.63
2023-01-10T01:45:27.623Z,95830.94
2023-01-10T01:48:06.200Z,95830.63
2023-01-10T01:50:54.602Z,95840.50
2023-01-10T01:54:01.076Z,95840.72
2023-01-10T01:56:29.835Z,95844.69
2023-01-10T01:59:01.961Z,95850.91
2023-01-10T02:01:34.013Z,95839.94
2023-01-10T02:04:14.078Z,95844.34
2023-01-10T02:06:43.565Z,95848.53
2023-01-10T02:09:31.042Z,95853.28
2023-01-10T02:12:00.016Z,95855.88
2023-01-10T02:14:31.216Z,95855.66
2023-01-10T02:17:00.160Z,95853.94
2023-01-10T02:19:54.993Z,95853.69
2023-01-10T02:23:01.103Z,95856.16
2023-01-10T02:25:35.788Z,95865.63
2023-01-10T02:28:23.083Z,95868.66
2023-01-10T02:30:57.781Z,95863.50
2023-01-10T02:33:50.594Z,95875.03
2023-01-10T02:36:32.930Z,95869.59
2023-01-10T02:39:10.573Z,95874.25
2023-01-10T02:41:39.672Z,95874.00
2023-01-10T02:44:19.187Z,95883.19
2023-01-10T02:46:50.472Z,95867.00
2023-01-10T02:49:20.043Z,95865.16
2023-01-10T02:51:49.145Z,95850.31
2023-01-10T02:54:26.487Z,95865.34
2023-01-10T02:57:13.463Z,95868.81
2023-01-10T03:00:10.074Z,95865.72
2023-01-10T03:02:54.002Z,95862.53
2023-01-10T03:05:50.605Z,95869.91
2023-01-10T03:08:43.289Z,95863.66
2023-01-10T03:11:12.852Z,95868.66
2023-01-10T03:13:52.579Z,95859.47
2023-01-10T03:16:29.205Z,95882.00
2023-01-10T03:19:18.471Z,95880.72
2023-01-10T03:21:50.259Z,95870.06
2023-01-10T03:24:28.151Z,95882.41
2023-01-10T03:27:04.881Z,95857.34
2023-01-10T03:29:55.700Z,95847.69
2023-01-10T03:32:27.728Z,95836.72
2023-01-10T03:34:58.834Z,95848.47
2023-01-10T03:37:39.642Z,95832.09
2023-01-10T03:40:22.227Z,95834.53
2023-01-10T03:43:33.053Z,95846.84
2023-01-10T03:46:28.151Z,95846.16
2023-01-10T03:49:00.333Z,95840.63
2023-01-10T03:51:30.142Z,95851.66
2023-01-10T03:54:02.029Z,95863.03
2023-01-10T03:56:31.538Z,95876.72
2023-01-10T03:59:00.501Z,95873.84
2023-01-10T04:01:30.047Z,95866.50
2023-01-10T04:03:59.196Z,95861.59
2023-01-10T04:06:28.116Z,95863.25
2023-01-10T04:08:56.938Z,95858.25
2023-01-10T04:11:25.945Z,95846.75
2023-01-10T04:13:54.892Z,95864.09
2023-01-10T04:16:23.874Z,95855.78
2023-01-10T04:18:52.717Z,95843.09
2023-01-10T04:21:21.725Z,95856.78
2023-01-10T04:23:50.772Z,95853.72
2023-01-10T04:26:19.943Z,95850.38
2023-01-10T04:28:48.762Z,95846.22
2023-01-10T04:31:17.599Z,95853.56
2023-01-10T04:33:46.506Z,95855.09
2023-01-10T04:36:15.447Z,95840.75
2023-01-10T04:38:44.525Z,95847.81
2023-01-10T04:41:13.286Z,95852.53
2023-01-10T04:43:42.142Z,95839.97
2023-01-10T04:46:11.026Z,95841.78
2023-01-10T04:48:39.961Z,95840.22
2023-01-10T04:51:08.831Z,95846.78
2023-01-10T04:53:37.773Z,95855.75
2023-01-10T04:56:10.395Z,95857.31
2023-01-10T04:58:39.598Z,95846.34
2023-01-10T05:01:13.767Z,95839.59
2023-01-10T05:03:43.250Z,95836.16
2023-01-10T05:06:12.158Z,95836.47
2023-01-10T05:08:40.967Z,95851.13
2023-01-10T05:11:10.039Z,95852.94
2023-01-10T05:13:39.017Z,95840.19
2023-01-10T05:16:08.186Z,95846.69
2023-01-10T05:18:37.096Z,95847.97
2023-01-10T05:21:08.389Z,95833.81
2023-01-10T05:23:38.561Z,95839.88
2023-01-10T05:26:20.167Z,95838.06
2023-01-10T05:28:49.111Z,95832.59
2023-01-10T05:31:20.449Z,95824.38
2023-01-10T05:33:51.708Z,95832.19
2023-01-10T05:36:21.149Z,95822.28
2023-01-10T05:38:50.029Z,95827.81
2023-01-10T05:41:18.821Z,95826.28
2023-01-10T05:43:48.142Z,95820.75
2023-01-10T05:46:17.171Z,95820.22
2023-01-10T05:48:46.058Z,95820.69
2023-01-10T05:51:15.512Z,95813.34
2023-01-10T05:53:44.466Z,95805.19
2023-01-10T05:56:13.496Z,95828.50
2023-01-10T05:58:42.559Z,95831.88
2023-01-10T06:01:12.508Z,95834.19
2023-01-10T06:03:41.844Z,95841.38
2023-01-10T06:06:10.944Z,95822.03
2023-01-10T06:08:39.802Z,95825.44
2023-01-10T06:11:09.067Z,95828.88
2023-01-10T06:13:37.962Z,95823.66
2023-01-10T06:16:07.255Z,95828.94
2023-01-10T06:18:36.265Z,95830.75
2023-01-10T06:21:05.264Z,95826.81
2023-01-10T06:23:34.139Z,95817.94
2023-01-10T06:26:03.030Z,95824.16
2023-01-10T06:28:31.985Z,95811.03
2023-01-10T06:31:00.848Z,95819.16
2023-01-10T06:33:29.858Z,95809.78
2023-01-10T06:35:58.733Z,95810.00
2023-01-10T06:38:27.651Z,95818.63
2023-01-10T06:40:56.518Z,95808.19
2023-01-10T06:43:26.052Z,95804.22
2023-01-10T06:45:55.038Z,95819.06
2023-01-10T06:48:24.318Z,95804.88
2023-01-10T06:50:53.073Z,95814.78
2023-01-10T06:53:22.011Z,95813.72
2023-01-10T06:55:51.323Z,95798.44
2023-01-10T06:58:20.178Z,95796.91
2023-01-10T07:00:49.940Z,95796.84
2023-01-10T07:03:19.147Z,95809.09
2023-01-10T07:05:48.031Z,95816.69
2023-01-10T07:08:17.193Z,95821.34
2023-01-10T07:10:46.101Z,95804.59
2023-01-10T07:13:15.192Z,95816.63
2023-01-10T07:15:44.131Z,95809.25
2023-01-10T07:18:13.016Z,95813.38
2023-01-10T07:20:41.948Z,95802.81
2023-01-10T07:23:12.345Z,95810.13
2023-01-10T07:25:41.106Z,95824.44
2023-01-10T07:28:10.063Z,95827.75
2023-01-10T07:30:38.890Z,95822.78
2023-01-10T07:33:08.261Z,95833.97
2023-01-10T07:35:37.172Z,95822.66
2023-01-10T07:38:06.081Z,95826.06
2023-01-10T07:40:34.917Z,95817.13
2023-01-10T07:43:03.953Z,95815.97
2023-01-10T07:45:32.885Z,95826.09
2023-01-10T07:48:03.312Z,95825.47
2023-01-10T07:50:36.972Z,95833.78
2023-01-10T07:53:08.338Z,95833.53
2023-01-10T07:55:40.159Z,95813.66
2023-01-10T07:58:09.157Z,95813.41
2023-01-10T08:00:38.831Z,95820.66
2023-01-10T08:03:08.133Z,95814.91
2023-01-10T08:05:37.057Z,95821.63
2023-01-10T08:08:11.673Z,95831.44
2023-01-10T08:10:41.490Z,95826.41
2023-01-10T08:13:18.264Z,95826.78
2023-01-10T08:15:50.821Z,95833.28
2023-01-10T08:18:21.885Z,95830.25
2023-01-10T08:20:51.885Z,95834.25
2023-01-10T08:23:21.515Z,95840.69
2023-01-10T08:25:52.166Z,95835.59
2023-01-10T08:28:21.190Z,95841.84
2023-01-10T08:30:50.695Z,95840.41
2023-01-10T08:33:19.742Z,95842.94
2023-01-10T08:35:48.756Z,95859.00
2023-01-10T08:38:17.731Z,95848.97
2023-01-10T08:40:46.625Z,95855.69
2023-01-10T08:43:15.785Z,95852.44
2023-01-10T08:45:44.954Z,95864.00
2023-01-10T08:48:14.952Z,95868.47
2023-01-10T08:50:43.924Z,95862.84
2023-01-10T08:53:14.576Z,95861.97
2023-01-10T08:55:43.537Z,95852.69
2023-01-10T08:58:12.631Z,95847.16
2023-01-10T09:00:42.345Z,95851.94
2023-01-10T09:03:11.624Z,95846.63
2023-01-10T09:05:41.322Z,95853.53
2023-01-10T09:08:11.302Z,95848.09
2023-01-10T09:10:40.290Z,95855.00
2023-01-10T09:13:10.239Z,95847.19
2023-01-10T09:15:39.389Z,95848.25
2023-01-10T09:18:08.922Z,95855.25
2023-01-10T09:20:40.153Z,95859.88
2023-01-10T09:23:18.278Z,95867.00
2023-01-10T09:25:48.956Z,95861.34
2023-01-10T09:28:18.406Z,95855.59
2023-01-10T09:30:47.738Z,95868.00
2023-01-10T09:33:16.803Z,95858.94
2023-01-10T09:35:45.829Z,95847.66
2023-01-10T09:38:19.465Z,95851.53
2023-01-10T09:41:12.688Z,95852.09
2023-01-10T09:44:01.374Z,95850.81
2023-01-10T09:46:47.587Z,95855.69
2023-01-10T09:49:45.069Z,95843.56
2023-01-10T09:52:36.949Z,95852.28
2023-01-10T09:55:23.240Z,95851.56
2023-01-10T09:57:56.358Z,95853.81
2023-01-10T10:00:40.190Z,95849.16
2023-01-10T10:03:23.462Z,95854.00
2023-01-10T10:05:56.000Z,95858.28
2023-01-10T10:08:27.045Z,95854.09
2023-01-10T10:11:26.008Z,95844.94
2023-01-10T10:14:07.774Z,95832.28
2023-01-10T10:17:01.245Z,95834.31
2023-01-10T10:19:48.590Z,95840.50
2023-01-10T10:22:23.317Z,95845.09
2023-01-10T10:25:16.496Z,95827.38
2023-01-10T10:28:02.695Z,95823.09
2023-01-10T10:30:47.456Z,95832.22
2023-01-10T10:33:18.889Z,95835.25
2023-01-10T10:36:05.690Z,95822.28
2023-01-10T10:38:44.084Z,95820.69
2023-01-10T10:41:29.886Z,95816.09
2023-01-10T10:44:04.644Z,95828.47
2023-01-10T10:46:33.762Z,95831.06
2023-01-10T10:49:17.254Z,95827.09
2023-01-10T10:51:53.431Z,95826.69
2023-01-10T10:54:23.674Z,95824.50
2023-01-10T10:56:55.804Z,95829.59
2023-01-10T10:59:24.678Z,95816.94
2023-01-10T11:01:54.859Z,95810.59
2023-01-10T11:04:24.875Z,95818.00
2023-01-10T11:06:54.041Z,95818.31
2023-01-10T11:09:36.279Z,95818.78
2023-01-10T11:12:06.988Z,95821.78
2023-01-10T11:14:43.607Z,95815.25
2023-01-10T11:17:30.759Z,95820.84
2023-01-10T11:20:06.535Z,95809.78
2023-01-10T11:22:45.131Z,95807.97
2023-01-10T11:25:18.276Z,95795.88
2023-01-10T11:27:51.446Z,95806.25
2023-01-10T11:30:27.501Z,95816.47
2023-01-10T11:33:00.833Z,95827.06
2023-01-10T11:35:39.449Z,95825.03
2023-01-10T11:38:22.623Z,95819.44
2023-01-10T11:40:56.046Z,95822.16
2023-01-10T11:43:26.997Z,95821.72
2023-01-10T11:46:03.366Z,95829.72
2023-01-10T11:49:04.232Z,95831.72
2023-01-10T11:51:46.932Z,95834.16
2023-01-10T11:54:26.176Z,95833.03
2023-01-10T11:57:07.743Z,95837.56
2023-01-10T11:59:39.008Z,95841.31
2023-01-10T12:02:30.265Z,95832.22
2023-01-10T12:05:02.073Z,95836.69
2023-01-10T12:07:31.955Z,95840.19
2023-01-10T12:10:04.863Z,95836.00
2023-01-10T12:12:36.701Z,95842.00
2023-01-10T12:15:24.491Z,95846.38
2023-01-10T12:17:56.320Z,95854.75
2023-01-10T12:20:28.879Z,95844.59
2023-01-10T12:23:06.909Z,95844.72
2023-01-10T12:25:38.754Z,95839.91
2023-01-10T12:28:22.038Z,95825.63
2023-01-10T12:30:55.620Z,95836.22
2023-01-10T12:33:29.387Z,95839.28
2023-01-10T12:36:07.541Z,95820.91
2023-01-10T12:39:11.358Z,95835.63
2023-01-10T12:42:04.018Z,95841.53
2023-01-10T12:44:42.802Z,95851.91
2023-01-10T12:47:17.882Z,95849.72
2023-01-10T12:50:06.059Z,95850.94
2023-01-10T12:52:46.237Z,95854.41
2023-01-10T12:55:17.325Z,95836.25
2023-01-10T12:57:51.944Z,95841.00
2023-01-10T13:00:32.872Z,95854.63
2023-01-10T13:03:13.760Z,95848.63
2023-01-10T13:05:42.829Z,95846.84
2023-01-10T13:08:14.541Z,95852.75
2023-01-10T13:10:46.279Z,95857.50
2023-01-10T13:13:40.086Z,95858.94
2023-01-10T13:16:26.758Z,95865.44
2023-01-10T13:19:22.072Z,95852.56
2023-01-10T13:21:53.098Z,95853.72
2023-01-10T13:24:26.982Z,95846.75
2023-01-10T13:27:02.688Z,95861.09
2023-01-10T13:29:32.128Z,95863.00
2023-01-10T13:32:03.416Z,95857.81
2023-01-10T13:34:36.858Z,95861.34
2023-01-10T13:37:13.707Z,95863.88
2023-01-10T13:39:49.613Z,95862.41
2023-01-10T13:42:54.216Z,95848.00
2023-01-10T13:45:24.536Z,95836.06
2023-01-10T13:47:55.195Z,95845.56
2023-01-10T13:50:24.321Z,95854.78
2023-01-10T13:53:02.979Z,95863.88
2023-01-10T13:55:43.165Z,95872.09
2023-01-10T13:58:14.976Z,95865.69
2023-01-10T14:01:11.019Z,95854.31
2023-01-10T14:03:59.989Z,95854.63
2023-01-10T14:06:28.862Z,95864.72
2023-01-10T14:09:01.179Z,95869.81
2023-01-10T14:11:54.899Z,95870.19
2023-01-10T14:14:33.207Z,95870.97
2023-01-10T14:17:23.980Z,95865.78
2023-01-10T14:20:25.831Z,95871.06
2023-01-10T14:23:21.807Z,95853.56
2023-01-10T14:25:55.276Z,95867.13
2023-01-10T14:28:36.110Z,95865.06
2023-01-10T14:31:14.364Z,95868.13
2023-01-10T14:33:44.802Z,95861.81
2023-01-10T14:36:24.729Z,95865.28
2023-01-10T14:38:57.427Z,95868.66
2023-01-10T14:41:38.040Z,95876.09
2023-01-10T14:44:30.260Z,95874.50
2023-01-10T14:47:05.078Z,95881.63
2023-01-10T14:49:49.856Z,95879.84
2023-01-10T14:52:23.139Z,95876.59
2023-01-10T14:55:12.008Z,95879.41
2023-01-10T14:57:41.283Z,95881.41
2023-01-10T15:00:18.126Z,95891.66
2023-01-10T15:02:49.350Z,95896.47
2023-01-10T15:05:27.195Z,95900.13
2023-01-10T15:08:15.393Z,95897.63
2023-01-10T15:10:47.831Z,95901.31
2023-01-10T15:13:20.739Z,95901.81
2023-01-10T15:15:51.008Z,95889.56
2023-01-10T15:18:44.632Z,95908.47
2023-01-10T15:21:15.374Z,95894.81
2023-01-10T15:23:46.975Z,95898.47
2023-01-10T15:26:22.128Z,95895.53
2023-01-10T15:29:14.637Z,95893.59
2023-01-10T15:31:45.091Z,95893.84
2023-01-10T15:34:22.366Z,95902.22
2023-01-10T15:36:55.202Z,95899.72
2023-01-10T15:39:40.569Z,95896.09
2023-01-10T15:42:13.054Z,95898.06
2023-01-10T15:44:45.537Z,95909.19
2023-01-10T15:47:37.601Z,95912.00
2023-01-10T15:50:29.769Z,95927.75
2023-01-10T15:53:01.832Z,95915.56
2023-01-10T15:55:49.999Z,95916.31
2023-01-10T15:58:24.205Z,95902.34
2023-01-10T16:00:56.109Z,95911.06
2023-01-10T16:03:40.676Z,95926.03
2023-01-10T16:06:29.953Z,95926.41
2023-01-10T16:09:01.873Z,95934.81
2023-01-10T16:12:12.357Z,95936.44
2023-01-10T16:14:41.195Z,95936.34
2023-01-10T16:17:12.172Z,95945.16
2023-01-10T16:19:41.074Z,95950.38
2023-01-10T16:22:17.042Z,95955.75
2023-01-10T16:24:48.167Z,95939.25
2023-01-10T16:27:17.313Z,95932.09
2023-01-10T16:29:46.086Z,95955.34
2023-01-10T16:32:15.434Z,95949.19
2023-01-10T16:34:44.888Z,95953.34
2023-01-10T16:37:13.773Z,95961.94
2023-01-10T16:39:42.622Z,95969.09
2023-01-10T16:42:29.903Z,95967.94
2023-01-10T16:44:58.702Z,95952.50
2023-01-10T16:47:27.556Z,95966.19
2023-01-10T16:49:56.504Z,95958.44
2023-01-10T16:52:25.330Z,95971.38
2023-01-10T16:54:54.361Z,95981.72
2023-01-10T16:57:25.182Z,95986.13
2023-01-10T16:59:54.076Z,95992.50
2023-01-10T17:02:25.477Z,95992.28
2023-01-10T17:04:55.206Z,95984.41
2023-01-10T17:07:24.065Z,95994.28
2023-01-10T17:09:52.904Z,96004.84
2023-01-10T17:12:21.757Z,95993.13
2023-01-10T17:14:50.650Z,96007.03
2023-01-10T17:17:19.484Z,96010.22
2023-01-10T17:19:48.369Z,96016.16
2023-01-10T17:22:17.303Z,96018.72
2023-01-10T17:24:46.257Z,96035.44
2023-01-10T17:27:15.249Z,96019.34
2023-01-10T17:29:44.061Z,96028.88
2023-01-10T17:32:13.466Z,96038.78
2023-01-10T17:34:42.409Z,96025.28
2023-01-10T17:37:11.496Z,96025.28
2023-01-10T17:39:40.433Z,96026.06
2023-01-10T17:42:09.359Z,96026.03
2023-01-10T17:44:38.177Z,96032.00
2023-01-10T17:47:07.015Z,96045.25
2023-01-10T17:49:36.968Z,96041.06
2023-01-10T17:52:05.921Z,96037.06
2023-01-10T17:54:35.730Z,96043.78
2023-01-10T17:57:06.055Z,96064.63
2023-01-10T17:59:35.047Z,96059.63
2023-01-10T18:02:04.631Z,96073.06
2023-01-10T18:04:33.739Z,96087.75
2023-01-10T18:07:02.661Z,96073.00
2023-01-10T18:09:31.517Z,96084.06
2023-01-10T18:12:00.371Z,96085.41
2023-01-10T18:14:38.435Z,96075.81
2023-01-10T18:17:12.925Z,96081.13
2023-01-10T18:19:41.781Z,96079.13
2023-01-10T18:22:29.536Z,96094.34
2023-01-10T18:24:58.647Z,96097.03
2023-01-10T18:27:27.994Z,96096.38
2023-01-10T18:29:56.848Z,96103.63
2023-01-10T18:32:25.909Z,96107.56
2023-01-10T18:34:55.721Z,96107.31
2023-01-10T18:37:24.813Z,96121.19
2023-01-10T18:39:53.710Z,96113.75
2023-01-10T18:42:22.479Z,96127.19
2023-01-10T18:44:51.597Z,96145.50
2023-01-10T18:47:20.541Z,96151.34
2023-01-10T18:49:49.541Z,96158.22
2023-01-10T18:52:18.513Z,96162.91
2023-01-10T18:54:48.724Z,96173.13
2023-01-10T18:57:17.520Z,96174.81
2023-01-10T18:59:46.331Z,96172.53
2023-01-10T19:02:17.200Z,96185.13
2023-01-10T19:04:46.365Z,96194.16
2023-01-10T19:07:15.196Z,96203.56
2023-01-10T19:09:44.037Z,96203.50
2023-01-10T19:12:13.011Z,96209.00
2023-01-10T19:14:41.982Z,96218.38
2023-01-10T19:17:10.818Z,96227.84
2023-01-10T19:19:39.709Z,96213.06
2023-01-10T19:22:08.543Z,96226.69
2023-01-10T19:24:38.396Z,96211.16
2023-01-10T19:27:07.348Z,96218.88
2023-01-10T19:29:37.459Z,96216.47
2023-01-10T19:32:06.382Z,96219.72
2023-01-10T19:34:35.393Z,96212.84
2023-01-10T19:37:04.247Z,96216.09
2023-01-10T19:39:33.687Z,96227.69
2023-01-10T19:42:02.489Z,96230.16
2023-01-10T19:44:31.445Z,96225.59
2023-01-10T19:47:00.381Z,96208.56
2023-01-10T19:49:35.229Z,96233.78
2023-01-10T19:52:05.351Z,96231.75
2023-01-10T19:54:34.840Z,96220.97
2023-01-10T19:57:03.780Z,96246.31
2023-01-10T19:59:33.766Z,96251.94
2023-01-10T20:02:03.751Z,96248.31
2023-01-10T20:04:32.943Z,96254.13
2023-01-10T20:07:01.931Z,96266.53
2023-01-10T20:09:30.837Z,96274.84
2023-01-10T20:11:59.837Z,96281.44
2023-01-10T20:14:28.946Z,96291.53
2023-01-10T20:16:57.820Z,96292.56
2023-01-10T20:19:26.651Z,96300.88
2023-01-10T20:21:55.490Z,96307.28
2023-01-10T20:24:24.318Z,96308.13
2023-01-10T20:26:53.459Z,96308.28
2023-01-10T20:29:22.263Z,96328.97
2023-01-10T20:31:53.848Z,96309.94
2023-01-10T20:34:23.425Z,96326.09
2023-01-10T20:36:54.670Z,96315.88
2023-01-10T20:39:26.138Z,96318.25
2023-01-10T20:41:55.516Z,96314.47
2023-01-10T20:44:26.802Z,96312.41
2023-01-10T20:46:56.205Z,96315.88
2023-01-10T20:49:25.414Z,96320.56
2023-01-10T20:51:54.984Z,96325.06
2023-01-10T20:54:23.964Z,96324.88
2023-01-10T20:56:52.966Z,96330.84
2023-01-10T20:59:21.761Z,96326.69
2023-01-10T21:01:51.270Z,96334.53
2023-01-10T21:04:20.313Z,96335.16
2023-01-10T21:06:49.332Z,96316.75
2023-01-10T21:09:18.192Z,96319.19
2023-01-10T21:11:59.836Z,96335.97
2023-01-10T21:14:33.084Z,96328.59
2023-01-10T21:17:01.941Z,96319.97
2023-01-10T21:19:30.866Z,96313.91
2023-01-10T21:21:59.690Z,96324.94
2023-01-10T21:24:28.512Z,96333.25
2023-01-10T21:26:57.451Z,96323.66
2023-01-10T21:29:26.254Z,96317.41
2023-01-10T21:31:55.171Z,96318.88
2023-01-10T21:34:24.027Z,96330.06
2023-01-10T21:36:53.263Z,96336.47
2023-01-10T21:39:22.080Z,96338.53
2023-01-10T21:42:23.480Z,96349.56
2023-01-10T21:44:52.351Z,96358.66
2023-01-10T21:47:21.151Z,96361.38
2023-01-10T21:49:49.991Z,96367.13
2023-01-10T21:52:19.008Z,96377.81
2023-01-10T21:54:47.852Z,96387.84
2023-01-10T21:57:22.339Z,96388.31
2023-01-10T21:59:52.280Z,96390.38
2023-01-10T22:02:24.667Z,96393.56
2023-01-10T22:04:55.405Z,96394.84
2023-01-10T22:07:26.540Z,96396.91
2023-01-10T22:09:55.692Z,96402.34
2023-01-10T22:12:25.667Z,96402.47
2023-01-10T22:14:54.556Z,96402.44
2023-01-10T22:17:23.785Z,96408.81
2023-01-10T22:19:52.677Z,96417.88
2023-01-10T22:22:21.450Z,96429.34
2023-01-10T22:24:50.357Z,96429.16
2023-01-10T22:27:20.501Z,96442.00
2023-01-10T22:29:49.323Z,96435.72
2023-01-10T22:32:18.091Z,96426.09
2023-01-10T22:34:47.181Z,96433.41
2023-01-10T22:37:16.945Z,96430.22
2023-01-10T22:39:48.289Z,96435.75
2023-01-10T22:42:18.024Z,96440.50
2023-01-10T22:44:48.131Z,96439.19
2023-01-10T22:47:17.164Z,96447.97
2023-01-10T22:49:46.100Z,96441.53
2023-01-10T22:52:15.120Z,96459.72
2023-01-10T22:54:44.081Z,96453.75
2023-01-10T22:57:14.804Z,96480.25
2023-01-10T22:59:43.658Z,96479.56
2023-01-10T23:02:14.729Z,96487.38
2023-01-10T23:04:43.748Z,96484.78
2023-01-10T23:07:13.560Z,96484.28
2023-01-10T23:09:42.354Z,96499.31
2023-01-10T23:12:11.186Z,96491.19
2023-01-10T23:14:40.013Z,96502.09
2023-01-10T23:17:08.895Z,96504.91
2023-01-10T23:19:37.728Z,96511.38
2023-01-10T23:22:06.600Z,96519.72
2023-01-10T23:24:35.668Z,96522.28
2023-01-10T23:27:04.564Z,96519.88
2023-01-10T23:29:33.376Z,96532.34
2023-01-10T23:32:02.381Z,96535.69
2023-01-10T23:34:31.205Z,96534.06
2023-01-10T23:37:00.108Z,96540.81
2023-01-10T23:39:28.972Z,96540.16
2023-01-10T23:41:57.801Z,96531.97
2023-01-10T23:44:29.372Z,96533.19
2023-01-10T23:46:58.517Z,96536.44
2023-01-10T23:49:27.384Z,96542.31
2023-01-10T23:51:56.276Z,96532.81
2023-01-10T23:54:25.161Z,96536.75
2023-01-10T23:56:54.396Z,96538.13
2023-01-10T23:59:24.301Z,96542.69
